createdAt,value
2023-04-04T00:02:27.553Z,26.20
2023-04-04T00:04:55.222Z,24.30
2023-04-04T00:07:22.922Z,25.70
2023-04-04T00:09:51.025Z,23.75
2023-04-04T00:12:18.642Z,23.10
2023-04-04T00:14:48.580Z,20.30
2023-04-04T00:17:16.653Z,21.65
2023-04-04T00:19:44.302Z,20.50
2023-04-04T00:22:14.147Z,24.50
2023-04-04T00:24:41.997Z,20.05
2023-04-04T00:27:09.929Z,15.95
2023-04-04T00:29:37.646Z,19.63
2023-04-04T00:32:05.500Z,19.00
2023-04-04T00:34:33.374Z,20.85
2023-04-04T00:37:01.467Z,25.08
2023-04-04T00:41:57.415Z,19.27
2023-04-04T00:44:25.408Z,18.05
2023-04-04T00:46:53.561Z,17.33
2023-04-04T00:49:21.893Z,15.45
2023-04-04T00:51:50.038Z,18.08
2023-04-04T00:56:45.768Z,15.68
2023-04-04T00:59:16.515Z,14.93
2023-04-04T01:01:44.665Z,16.70
2023-04-04T01:04:12.847Z,15.43
2023-04-04T01:06:41.664Z,12.63
2023-04-04T01:09:10.106Z,16.77
2023-04-04T01:11:39.364Z,14.32
2023-04-04T01:14:08.803Z,13.63
2023-04-04T01:16:37.328Z,11.50
2023-04-04T01:19:09.177Z,12.40
2023-04-04T01:21:38.823Z,10.60
2023-04-04T01:24:10.516Z,16.15
2023-04-04T01:26:58.459Z,12.20
2023-04-04T01:29:26.542Z,10.73
2023-04-04T01:32:02.680Z,11.55
2023-04-04T01:35:03.862Z,13.82
2023-04-04T01:37:40.797Z,11.35
2023-04-04T01:40:17.194Z,12.00
2023-04-04T01:45:16.469Z,14.35
2023-04-04T01:47:45.441Z,9.40
2023-04-04T01:50:17.494Z,14.60
2023-04-04T01:52:45.447Z,16.23
2023-04-04T01:55:13.847Z,13.75
2023-04-04T01:57:42.630Z,13.50
2023-04-04T02:00:11.388Z,16.05
2023-04-04T02:02:44.784Z,10.50
2023-04-04T02:05:13.184Z,12.10
2023-04-04T02:10:03.307Z,11.80
2023-04-04T02:12:31.243Z,15.77
2023-04-04T02:14:59.626Z,16.75
2023-04-04T02:17:28.470Z,12.77
2023-04-04T02:19:56.436Z,13.63
2023-04-04T02:22:24.032Z,13.43
2023-04-04T02:24:53.778Z,12.80
2023-04-04T02:27:21.870Z,13.43
2023-04-04T02:29:49.877Z,13.98
2023-04-04T02:32:18.422Z,15.10
2023-04-04T02:34:46.608Z,11.70
2023-04-04T02:37:14.940Z,17.17
2023-04-04T02:39:43.607Z,17.83
2023-04-04T02:42:11.346Z,20.90
2023-04-04T02:44:39.462Z,19.00
2023-04-04T02:47:08.990Z,19.80
2023-04-04T02:49:36.962Z,13.68
2023-04-04T02:52:04.844Z,18.88
2023-04-04T02:54:36.685Z,14.90
2023-04-04T02:57:05.653Z,21.13
2023-04-04T02:59:33.381Z,17.27
2023-04-04T03:02:01.611Z,16.00
2023-04-04T03:04:30.864Z,13.40
2023-04-04T03:06:58.475Z,14.25
2023-04-04T03:09:26.466Z,14.95
2023-04-04T03:11:54.879Z,16.20
2023-04-04T03:14:23.119Z,15.00
2023-04-04T03:16:52.405Z,22.87
2023-04-04T03:19:20.568Z,17.77
2023-04-04T03:21:48.518Z,21.70
2023-04-04T03:24:16.122Z,19.42
2023-04-04T03:26:44.151Z,23.45
2023-04-04T03:29:13.663Z,20.87
2023-04-04T03:31:41.820Z,20.38
2023-04-04T03:36:37.501Z,17.93
2023-04-04T03:39:05.040Z,18.33
2023-04-04T03:41:32.670Z,22.15
2023-04-04T03:44:00.604Z,17.80
2023-04-04T03:46:28.325Z,18.23
2023-04-04T03:48:57.119Z,21.35
2023-04-04T03:51:25.377Z,23.10
2023-04-04T03:53:53.367Z,23.20
2023-04-04T03:56:21.646Z,20.10
2023-04-04T04:01:21.104Z,18.87
2023-04-04T04:06:16.530Z,22.88
2023-04-04T04:11:11.718Z,18.50
2023-04-04T04:13:40.285Z,21.58
2023-04-04T04:16:08.950Z,20.77
2023-04-04T04:18:37.469Z,26.63
2023-04-04T04:21:09.744Z,22.83
2023-04-04T04:23:37.825Z,26.83
2023-04-04T04:26:06.712Z,30.25
2023-04-04T04:28:34.642Z,25.90
2023-04-04T04:31:10.770Z,25.67
2023-04-04T04:33:45.024Z,28.30
2023-04-04T04:36:13.148Z,23.60
2023-04-04T04:38:53.966Z,26.80
2023-04-04T04:41:23.082Z,23.93
2023-04-04T04:43:52.818Z,22.10
2023-04-04T04:46:21.512Z,23.63
2023-04-04T04:48:49.492Z,31.73
2023-04-04T04:51:19.253Z,26.50
2023-04-04T04:53:52.023Z,36.97
2023-04-04T04:56:20.813Z,31.47
2023-04-04T04:58:51.433Z,35.60
2023-04-04T05:01:27.635Z,27.53
2023-04-04T05:03:57.388Z,30.47
2023-04-04T05:06:33.064Z,25.27
2023-04-04T05:09:00.816Z,24.52
2023-04-04T05:11:33.123Z,35.40
2023-04-04T05:14:02.329Z,25.87
2023-04-04T05:16:34.578Z,28.60
2023-04-04T05:19:03.740Z,23.67
2023-04-04T05:21:37.676Z,27.53
2023-04-04T05:24:08.924Z,27.27
2023-04-04T05:26:39.489Z,24.00
2023-04-04T05:29:07.843Z,21.33
2023-04-04T05:31:38.511Z,25.33
2023-04-04T05:34:14.259Z,32.07
2023-04-04T05:36:42.692Z,30.60
2023-04-04T05:39:11.262Z,28.07
2023-04-04T05:41:47.232Z,25.77
2023-04-04T05:44:17.903Z,27.17
2023-04-04T05:46:45.892Z,24.42
2023-04-04T05:49:13.870Z,26.40
2023-04-04T05:51:47.587Z,28.93
2023-04-04T05:54:17.273Z,27.60
2023-04-04T05:56:45.624Z,37.23
2023-04-04T05:59:25.307Z,27.83
2023-04-04T06:02:01.408Z,23.93
2023-04-04T06:04:30.051Z,25.23
2023-04-04T06:07:00.950Z,29.80
2023-04-04T06:09:29.103Z,28.73
2023-04-04T06:11:57.282Z,41.73
2023-04-04T06:14:24.982Z,31.60
2023-04-04T06:16:53.201Z,38.33
2023-04-04T06:19:21.883Z,28.35
2023-04-04T06:21:49.777Z,24.97
2023-04-04T06:24:17.928Z,24.52
2023-04-04T06:29:13.388Z,23.27
2023-04-04T06:31:43.628Z,25.07
2023-04-04T06:34:17.727Z,24.53
2023-04-04T06:39:40.782Z,22.33
2023-04-04T06:42:15.139Z,20.53
2023-04-04T06:44:48.345Z,25.70
2023-04-04T06:47:15.958Z,23.13
2023-04-04T06:49:43.923Z,27.13
2023-04-04T06:52:12.126Z,31.10
2023-04-04T06:54:40.118Z,25.00
2023-04-04T06:59:35.190Z,26.33
2023-04-04T07:02:02.911Z,23.17
2023-04-04T07:04:35.333Z,20.73
2023-04-04T07:07:03.771Z,21.97
2023-04-04T07:09:31.571Z,25.10
2023-04-04T07:11:59.554Z,18.92
2023-04-04T07:14:27.631Z,19.53
2023-04-04T07:16:55.920Z,23.75
2023-04-04T07:19:28.834Z,20.30
2023-04-04T07:21:57.828Z,21.77
2023-04-04T07:24:25.596Z,16.40
2023-04-04T07:26:53.283Z,18.00
2023-04-04T07:29:22.302Z,18.15
2023-04-04T07:31:51.188Z,17.17
2023-04-04T07:34:20.139Z,23.73
2023-04-04T07:36:48.187Z,13.77
2023-04-04T07:39:16.132Z,17.85
2023-04-04T07:41:44.160Z,15.82
2023-04-04T07:46:40.681Z,22.05
2023-04-04T07:49:08.716Z,14.32
2023-04-04T07:54:04.179Z,20.83
2023-04-04T07:56:31.953Z,17.63
2023-04-04T07:58:59.649Z,17.02
2023-04-04T08:01:27.769Z,18.67
2023-04-04T08:03:55.827Z,15.60
2023-04-04T08:06:23.841Z,15.80
2023-04-04T08:08:52.431Z,16.10
2023-04-04T08:11:20.159Z,13.70
2023-04-04T08:13:48.106Z,12.43
2023-04-04T08:18:43.585Z,18.60
2023-04-04T08:21:11.257Z,17.33
2023-04-04T08:23:39.028Z,11.05
2023-04-04T08:26:06.793Z,15.55
2023-04-04T08:28:34.903Z,15.15
2023-04-04T08:31:04.394Z,12.82
2023-04-04T08:33:46.276Z,17.75
2023-04-04T08:36:16.802Z,13.98
2023-04-04T08:38:44.990Z,14.40
2023-04-04T08:41:13.606Z,12.23
2023-04-04T08:43:44.088Z,15.00
2023-04-04T08:46:15.087Z,13.05
2023-04-04T08:48:44.694Z,15.63
2023-04-04T08:51:16.917Z,14.70
2023-04-04T08:53:44.626Z,14.10
2023-04-04T08:56:12.904Z,14.57
2023-04-04T09:01:08.691Z,17.35
2023-04-04T09:06:05.381Z,12.48
2023-04-04T09:08:33.340Z,13.73
2023-04-04T09:13:31.091Z,17.40
2023-04-04T09:16:00.609Z,16.58
2023-04-04T09:18:28.979Z,17.88
2023-04-04T09:20:56.597Z,18.50
2023-04-04T09:23:25.618Z,15.85
2023-04-04T09:28:26.491Z,14.65
2023-04-04T09:33:24.191Z,19.38
2023-04-04T09:35:57.237Z,20.60
2023-04-04T09:38:28.452Z,15.40
2023-04-04T09:40:57.105Z,15.57
2023-04-04T09:45:55.396Z,18.20
2023-04-04T09:48:29.009Z,21.83
2023-04-04T09:51:00.882Z,22.83
2023-04-04T09:53:28.744Z,19.20
2023-04-04T09:55:57.529Z,24.13
2023-04-04T09:58:28.591Z,22.55
2023-04-04T10:00:59.726Z,21.98
2023-04-04T10:03:28.844Z,18.77
2023-04-04T10:06:01.303Z,19.75
2023-04-04T10:08:30.157Z,16.90
2023-04-04T10:11:10.527Z,26.33
2023-04-04T10:13:44.633Z,19.13
2023-04-04T10:16:14.336Z,16.15
2023-04-04T10:18:42.252Z,22.60
2023-04-04T10:23:42.696Z,17.98
2023-04-04T10:26:11.161Z,18.27
2023-04-04T10:31:25.573Z,20.00
2023-04-04T10:34:24.448Z,20.50
2023-04-04T10:36:57.302Z,19.80
2023-04-04T10:39:27.289Z,24.10
2023-04-04T10:41:56.933Z,23.30
2023-04-04T10:44:33.691Z,20.75
2023-04-04T10:47:22.579Z,21.05
2023-04-04T10:49:51.681Z,18.90
2023-04-04T10:52:21.564Z,18.40
2023-04-04T10:54:59.050Z,17.95
2023-04-04T10:57:28.468Z,20.02
2023-04-04T11:00:06.667Z,21.30
2023-04-04T11:03:10.177Z,23.10
2023-04-04T11:05:42.823Z,24.60
2023-04-04T11:08:14.313Z,20.00
2023-04-04T11:10:50.135Z,22.30
2023-04-04T11:13:22.733Z,20.33
2023-04-04T11:15:58.038Z,22.27
2023-04-04T11:18:45.579Z,24.85
2023-04-04T11:21:20.039Z,20.42
2023-04-04T11:23:48.795Z,20.48
2023-04-04T11:26:29.112Z,23.50
2023-04-04T11:28:58.263Z,22.88
2023-04-04T11:31:33.711Z,19.15
2023-04-04T11:34:11.518Z,20.23
2023-04-04T11:36:40.295Z,22.42
2023-04-04T11:39:17.373Z,15.77
2023-04-04T11:41:49.658Z,18.52
2023-04-04T11:44:18.014Z,17.42
2023-04-04T11:46:50.980Z,23.40
2023-04-04T11:49:19.265Z,23.30
2023-04-04T11:51:46.862Z,19.60
2023-04-04T11:54:16.183Z,19.63
2023-04-04T11:56:45.367Z,20.48
2023-04-04T11:59:18.072Z,17.17
2023-04-04T12:01:46.064Z,20.55
2023-04-04T12:06:43.148Z,21.15
2023-04-04T12:09:13.183Z,19.50
2023-04-04T12:11:41.023Z,15.73
2023-04-04T12:16:45.478Z,22.08
2023-04-04T12:19:13.182Z,22.33
2023-04-04T12:21:41.348Z,20.95
2023-04-04T12:24:09.583Z,21.33
2023-04-04T12:26:41.711Z,19.75
2023-04-04T12:29:11.936Z,20.65
2023-04-04T12:31:43.037Z,21.55
2023-04-04T12:34:19.227Z,21.48
2023-04-04T12:36:54.576Z,21.33
2023-04-04T12:39:25.907Z,19.38
2023-04-04T12:42:04.104Z,22.17
2023-04-04T12:44:36.851Z,18.73
2023-04-04T12:47:09.921Z,20.65
2023-04-04T12:49:51.094Z,19.45
2023-04-04T12:52:26.849Z,16.20
2023-04-04T12:57:27.901Z,17.63
2023-04-04T12:59:56.784Z,21.83
2023-04-04T13:02:24.917Z,21.92
2023-04-04T13:04:58.580Z,24.58
2023-04-04T13:07:30.325Z,20.02
2023-04-04T13:10:00.350Z,19.42
2023-04-04T13:12:48.222Z,22.50
2023-04-04T13:15:15.827Z,21.92
2023-04-04T13:17:46.337Z,21.92
2023-04-04T13:20:15.663Z,17.40
2023-04-04T13:22:43.496Z,17.52
2023-04-04T13:27:39.592Z,20.85
2023-04-04T13:30:10.054Z,20.77
2023-04-04T13:32:41.807Z,17.08
2023-04-04T13:35:10.034Z,19.80
2023-04-04T13:37:38.762Z,20.85
2023-04-04T13:40:07.356Z,18.70
2023-04-04T13:42:35.546Z,27.08
2023-04-04T13:45:03.695Z,22.70
2023-04-04T13:47:32.185Z,20.95
2023-04-04T13:50:00.834Z,16.55
2023-04-04T13:52:28.477Z,21.33
2023-04-04T13:54:57.529Z,23.10
2023-04-04T13:57:27.452Z,21.38
2023-04-04T13:59:58.567Z,20.75
2023-04-04T14:02:26.530Z,20.35
2023-04-04T14:04:54.365Z,18.88
2023-04-04T14:07:22.208Z,19.63
2023-04-04T14:09:52.380Z,21.35
2023-04-04T14:12:21.229Z,19.80
2023-04-04T14:14:48.797Z,20.60
2023-04-04T14:17:16.453Z,17.25
2023-04-04T14:19:44.232Z,23.38
2023-04-04T14:24:41.708Z,18.88
2023-04-04T14:27:09.581Z,20.58
2023-04-04T14:29:38.060Z,16.90
2023-04-04T14:32:06.379Z,18.48
2023-04-04T14:34:33.950Z,16.52
2023-04-04T14:41:57.390Z,19.63
2023-04-04T14:44:25.261Z,16.13
2023-04-04T14:46:53.197Z,18.67
2023-04-04T14:49:21.172Z,19.00
2023-04-04T14:51:48.990Z,20.17
2023-04-04T14:56:49.292Z,16.95
2023-04-04T14:59:18.450Z,15.80
2023-04-04T15:01:49.438Z,14.98
2023-04-04T15:04:17.321Z,19.35
2023-04-04T15:09:13.464Z,17.73
2023-04-04T15:11:41.303Z,21.70
2023-04-04T15:14:09.461Z,18.15
2023-04-04T15:16:37.172Z,18.27
2023-04-04T15:19:05.729Z,18.63
2023-04-04T15:21:33.580Z,20.67
2023-04-04T15:24:01.254Z,18.17
2023-04-04T15:26:30.966Z,17.98
2023-04-04T15:28:59.922Z,19.02
2023-04-04T15:31:28.199Z,16.90
2023-04-04T15:34:01.927Z,17.27
2023-04-04T15:36:31.599Z,23.42
2023-04-04T15:38:59.307Z,25.60
2023-04-04T15:43:54.909Z,19.40
2023-04-04T15:51:26.490Z,22.65
2023-04-04T15:53:55.958Z,23.42
2023-04-04T15:56:24.030Z,24.17
2023-04-04T15:58:53.022Z,23.67
2023-04-04T16:01:23.568Z,21.35
2023-04-04T16:03:53.853Z,20.77
2023-04-04T16:06:21.764Z,21.52
2023-04-04T16:11:19.016Z,21.02
2023-04-04T16:13:48.048Z,24.50
2023-04-04T16:16:16.038Z,21.55
2023-04-04T16:18:43.795Z,20.60
2023-04-04T16:23:39.827Z,20.23
2023-04-04T16:28:36.979Z,22.65
2023-04-04T16:31:04.866Z,23.45
2023-04-04T16:33:32.615Z,22.20
2023-04-04T16:36:01.083Z,24.92
2023-04-04T16:43:24.881Z,20.80
2023-04-04T16:45:53.101Z,25.88
2023-04-04T16:48:21.208Z,21.55
2023-04-04T16:50:48.835Z,21.70
2023-04-04T16:53:16.877Z,19.70
2023-04-04T16:55:46.193Z,20.98
2023-04-04T16:58:14.025Z,21.20
2023-04-04T17:03:11.802Z,20.10
2023-04-04T17:05:39.773Z,21.25
2023-04-04T17:10:40.448Z,25.38
2023-04-04T17:13:09.021Z,28.60
2023-04-04T17:15:37.055Z,22.70
2023-04-04T17:18:05.756Z,21.05
2023-04-04T17:20:37.321Z,24.55
2023-04-04T17:23:05.117Z,24.20
2023-04-04T17:25:33.773Z,19.92
2023-04-04T17:28:04.531Z,21.65
2023-04-04T17:30:32.181Z,24.63
2023-04-04T17:33:00.711Z,24.23
2023-04-04T17:35:29.123Z,23.67
2023-04-04T17:37:59.459Z,22.10
2023-04-04T17:40:27.864Z,24.67
2023-04-04T17:42:55.938Z,21.42
2023-04-04T17:45:23.797Z,23.17
2023-04-04T17:50:19.349Z,25.40
2023-04-04T17:52:49.707Z,28.75
2023-04-04T17:55:18.310Z,23.25
2023-04-04T17:57:46.452Z,25.30
2023-04-04T18:02:42.673Z,26.33
2023-04-04T18:05:12.878Z,32.40
2023-04-04T18:07:41.070Z,22.95
2023-04-04T18:10:09.232Z,25.05
2023-04-04T18:12:37.902Z,22.02
2023-04-04T18:15:06.504Z,24.35
2023-04-04T18:17:40.257Z,29.85
2023-04-04T18:20:14.275Z,21.88
2023-04-04T18:22:48.457Z,25.10
2023-04-04T18:25:18.746Z,25.75
2023-04-04T18:27:46.561Z,26.27
2023-04-04T18:30:14.331Z,28.25
2023-04-04T18:32:43.133Z,26.65
2023-04-04T18:35:11.630Z,24.80
2023-04-04T18:37:40.126Z,29.50
2023-04-04T18:40:08.600Z,30.33
2023-04-04T18:42:38.563Z,25.23
2023-04-04T18:45:09.760Z,27.20
2023-04-04T18:47:41.232Z,26.52
2023-04-04T18:50:09.711Z,28.35
2023-04-04T18:52:41.943Z,27.90
2023-04-04T18:55:12.304Z,27.88
2023-04-04T18:57:48.388Z,32.30
2023-04-04T19:00:16.766Z,31.08
2023-04-04T19:02:45.115Z,32.03
2023-04-04T19:05:15.842Z,30.73
2023-04-04T19:07:45.836Z,31.35
2023-04-04T19:10:14.334Z,30.33
2023-04-04T19:15:16.235Z,31.58
2023-04-04T19:17:46.008Z,26.10
2023-04-04T19:20:15.045Z,31.55
2023-04-04T19:22:43.279Z,33.20
2023-04-04T19:30:33.658Z,39.13
2023-04-04T19:33:03.677Z,31.55
2023-04-04T19:35:57.440Z,36.15
2023-04-04T19:38:25.429Z,29.10
2023-04-04T19:40:57.785Z,31.50
2023-04-04T19:43:26.838Z,31.67
2023-04-04T19:45:56.809Z,28.98
2023-04-04T19:48:49.241Z,25.27
2023-04-04T19:51:20.377Z,29.48
2023-04-04T19:53:48.037Z,35.58
2023-04-04T19:56:18.834Z,28.67
2023-04-04T19:58:48.535Z,31.85
2023-04-04T20:01:23.562Z,32.33
2023-04-04T20:03:51.298Z,25.55
2023-04-04T20:09:00.752Z,29.65
2023-04-04T20:11:30.888Z,32.35
2023-04-04T20:14:00.131Z,29.90
2023-04-04T20:16:30.020Z,28.17
2023-04-04T20:19:03.038Z,30.38
2023-04-04T20:21:34.619Z,31.02
2023-04-04T20:24:08.631Z,29.13
2023-04-04T20:26:36.607Z,26.58
2023-04-04T20:29:13.190Z,29.48
2023-04-04T20:31:48.689Z,31.58
2023-04-04T20:34:40.951Z,28.85
2023-04-04T20:37:11.920Z,28.67
2023-04-04T20:39:53.052Z,29.17
2023-04-04T20:42:38.794Z,32.35
2023-04-04T20:45:18.330Z,25.48
2023-04-04T20:47:48.137Z,34.58
2023-04-04T20:50:34.290Z,34.08
2023-04-04T20:53:05.076Z,28.27
2023-04-04T20:55:35.561Z,33.85
2023-04-04T20:58:26.962Z,31.95
2023-04-04T21:00:56.908Z,27.98
2023-04-04T21:03:25.351Z,29.83
2023-04-04T21:05:54.820Z,28.60
2023-04-04T21:08:22.510Z,30.05
2023-04-04T21:13:28.072Z,29.80
2023-04-04T21:16:01.567Z,29.70
2023-04-04T21:18:33.268Z,26.23
2023-04-04T21:21:17.209Z,23.63
2023-04-04T21:23:53.390Z,25.90
2023-04-04T21:26:54.059Z,26.90
2023-04-04T21:29:26.691Z,25.70
2023-04-04T21:31:56.112Z,39.13
2023-04-04T21:34:27.296Z,38.83
2023-04-04T21:37:00.040Z,28.90
2023-04-04T21:39:32.387Z,28.73
2023-04-04T21:42:04.042Z,31.70
2023-04-04T21:44:34.193Z,30.42
2023-04-04T21:47:02.242Z,25.00
2023-04-04T21:49:29.958Z,26.52
2023-04-04T21:51:57.976Z,32.03
2023-04-04T21:54:26.379Z,29.88
2023-04-04T21:56:55.511Z,27.25
2023-04-04T22:01:51.322Z,28.13
2023-04-04T22:06:47.625Z,29.98
2023-04-04T22:09:16.076Z,31.63
2023-04-04T22:11:44.903Z,30.15
2023-04-04T22:14:18.411Z,28.17
2023-04-04T22:16:46.570Z,27.27
2023-04-04T22:19:14.759Z,24.13
2023-04-04T22:21:47.345Z,22.55
2023-04-04T22:24:15.910Z,24.55
2023-04-04T22:26:46.105Z,26.98
2023-04-04T22:29:14.286Z,26.15
2023-04-04T22:31:42.217Z,27.67
2023-04-04T22:34:11.401Z,23.20
2023-04-04T22:36:40.428Z,26.80
2023-04-04T22:39:08.062Z,24.40
2023-04-04T22:41:35.783Z,29.70
2023-04-04T22:44:03.874Z,24.58
2023-04-04T22:49:07.218Z,20.95
2023-04-04T22:51:45.732Z,26.40
2023-04-04T22:54:17.370Z,26.27
2023-04-04T22:56:45.170Z,27.88
2023-04-04T22:59:13.262Z,29.50
2023-04-04T23:01:41.227Z,26.02
2023-04-04T23:04:09.122Z,23.65
2023-04-04T23:06:38.431Z,24.35
2023-04-04T23:09:08.093Z,26.65
2023-04-04T23:11:36.805Z,29.40
2023-04-04T23:14:09.638Z,25.70
2023-04-04T23:16:38.125Z,27.48
2023-04-04T23:24:01.471Z,27.70
2023-04-04T23:28:57.338Z,28.33
2023-04-04T23:31:26.856Z,27.20
2023-04-04T23:33:55.399Z,28.35
2023-04-04T23:36:23.188Z,27.00
2023-04-04T23:38:50.971Z,24.95
2023-04-04T23:41:18.894Z,25.98
2023-04-04T23:46:14.746Z,25.75
2023-04-04T23:48:42.476Z,28.30
2023-04-04T23:51:11.293Z,28.73
2023-04-04T23:53:39.380Z,26.92
2023-04-04T23:58:38.611Z,29.85
